sensor_id;sensor_type;location;lat;lon;timestamp;P1;durP1;ratioP1;P2;durP2;ratioP2
48526;SDS011;34317;51.660;5.824;2022-08-19T00:01:44;26.50;;;15.07;;
48526;SDS011;34317;51.660;5.824;2022-08-19T00:04:23;18.25;;;14.50;;
48526;SDS011;34317;51.660;5.824;2022-08-19T00:06:57;17.17;;;14.07;;
48526;SDS011;34317;51.660;5.824;2022-08-19T00:09:24;17.60;;;13.38;;
48526;SDS011;34317;51.660;5.824;2022-08-19T00:11:53;18.42;;;13.88;;
48526;SDS011;34317;51.660;5.824;2022-08-19T00:14:22;21.77;;;15.23;;
48526;SDS011;34317;51.660;5.824;2022-08-19T00:16:52;18.63;;;14.93;;
48526;SDS011;34317;51.660;5.824;2022-08-19T00:19:21;17.88;;;14.18;;
48526;SDS011;34317;51.660;5.824;2022-08-19T00:21:49;16.15;;;13.35;;
48526;SDS011;34317;51.660;5.824;2022-08-19T00:24:16;19.02;;;13.57;;
48526;SDS011;34317;51.660;5.824;2022-08-19T00:26:44;18.90;;;14.35;;
48526;SDS011;34317;51.660;5.824;2022-08-19T00:29:13;16.27;;;13.48;;
48526;SDS011;34317;51.660;5.824;2022-08-19T00:31:42;17.35;;;13.60;;
48526;SDS011;34317;51.660;5.824;2022-08-19T00:34:11;17.05;;;13.70;;
48526;SDS011;34317;51.660;5.824;2022-08-19T00:36:39;16.80;;;13.27;;
48526;SDS011;34317;51.660;5.824;2022-08-19T00:39:08;17.77;;;13.90;;
48526;SDS011;34317;51.660;5.824;2022-08-19T00:41:35;17.50;;;13.73;;
48526;SDS011;34317;51.660;5.824;2022-08-19T00:46:35;19.48;;;13.95;;
48526;SDS011;34317;51.660;5.824;2022-08-19T00:49:18;20.25;;;14.32;;
48526;SDS011;34317;51.660;5.824;2022-08-19T00:51:53;17.65;;;14.23;;
48526;SDS011;34317;51.660;5.824;2022-08-19T00:54:24;19.08;;;13.98;;
48526;SDS011;34317;51.660;5.824;2022-08-19T00:56:57;16.50;;;13.32;;
48526;SDS011;34317;51.660;5.824;2022-08-19T00:59:26;19.15;;;13.55;;
48526;SDS011;34317;51.660;5.824;2022-08-19T01:02:14;17.48;;;14.15;;
48526;SDS011;34317;51.660;5.824;2022-08-19T01:04:43;20.27;;;14.82;;
48526;SDS011;34317;51.660;5.824;2022-08-19T01:07:10;19.10;;;14.93;;
48526;SDS011;34317;51.660;5.824;2022-08-19T01:09:42;19.65;;;15.45;;
48526;SDS011;34317;51.660;5.824;2022-08-19T01:12:09;20.92;;;15.35;;
48526;SDS011;34317;51.660;5.824;2022-08-19T01:14:37;21.85;;;15.70;;
48526;SDS011;34317;51.660;5.824;2022-08-19T01:17:07;19.40;;;15.50;;
48526;SDS011;34317;51.660;5.824;2022-08-19T01:19:38;20.17;;;15.60;;
48526;SDS011;34317;51.660;5.824;2022-08-19T01:24:59;22.98;;;16.90;;
48526;SDS011;34317;51.660;5.824;2022-08-19T01:27:42;20.65;;;15.88;;
48526;SDS011;34317;51.660;5.824;2022-08-19T01:30:13;22.75;;;17.42;;
48526;SDS011;34317;51.660;5.824;2022-08-19T01:32:45;21.98;;;16.85;;
48526;SDS011;34317;51.660;5.824;2022-08-19T01:35:12;24.70;;;17.60;;
48526;SDS011;34317;51.660;5.824;2022-08-19T01:37:47;30.33;;;18.40;;
48526;SDS011;34317;51.660;5.824;2022-08-19T01:40:19;22.35;;;17.20;;
48526;SDS011;34317;51.660;5.824;2022-08-19T01:42:48;24.88;;;18.00;;
48526;SDS011;34317;51.660;5.824;2022-08-19T01:45:16;22.65;;;17.02;;
48526;SDS011;34317;51.660;5.824;2022-08-19T01:47:44;22.95;;;17.02;;
48526;SDS011;34317;51.660;5.824;2022-08-19T01:50:29;24.75;;;18.13;;
48526;SDS011;34317;51.660;5.824;2022-08-19T01:52:58;23.98;;;18.20;;
48526;SDS011;34317;51.660;5.824;2022-08-19T01:55:32;23.52;;;17.35;;
48526;SDS011;34317;51.660;5.824;2022-08-19T01:58:00;22.40;;;17.23;;
48526;SDS011;34317;51.660;5.824;2022-08-19T02:00:32;24.77;;;17.23;;
48526;SDS011;34317;51.660;5.824;2022-08-19T02:03:00;22.15;;;16.42;;
48526;SDS011;34317;51.660;5.824;2022-08-19T02:05:28;20.38;;;16.20;;
48526;SDS011;34317;51.660;5.824;2022-08-19T02:07:56;21.33;;;16.20;;
48526;SDS011;34317;51.660;5.824;2022-08-19T02:10:24;21.60;;;15.93;;
48526;SDS011;34317;51.660;5.824;2022-08-19T02:12:51;23.75;;;17.77;;
48526;SDS011;34317;51.660;5.824;2022-08-19T02:15:19;23.95;;;18.48;;
48526;SDS011;34317;51.660;5.824;2022-08-19T02:17:46;23.30;;;17.70;;
48526;SDS011;34317;51.660;5.824;2022-08-19T02:20:14;25.05;;;17.48;;
48526;SDS011;34317;51.660;5.824;2022-08-19T02:22:41;23.70;;;17.20;;
48526;SDS011;34317;51.660;5.824;2022-08-19T02:25:10;23.30;;;18.10;;
48526;SDS011;34317;51.660;5.824;2022-08-19T02:27:39;23.63;;;18.02;;
48526;SDS011;34317;51.660;5.824;2022-08-19T02:30:09;25.05;;;17.90;;
48526;SDS011;34317;51.660;5.824;2022-08-19T02:32:40;21.48;;;16.65;;
48526;SDS011;34317;51.660;5.824;2022-08-19T02:35:11;24.23;;;17.27;;
48526;SDS011;34317;51.660;5.824;2022-08-19T02:37:40;21.75;;;17.27;;
48526;SDS011;34317;51.660;5.824;2022-08-19T02:40:27;24.27;;;17.08;;
48526;SDS011;34317;51.660;5.824;2022-08-19T02:42:55;24.05;;;16.65;;
48526;SDS011;34317;51.660;5.824;2022-08-19T02:45:22;21.80;;;16.92;;
48526;SDS011;34317;51.660;5.824;2022-08-19T02:47:49;24.77;;;19.30;;
48526;SDS011;34317;51.660;5.824;2022-08-19T02:50:17;21.55;;;17.42;;
48526;SDS011;34317;51.660;5.824;2022-08-19T02:52:44;22.23;;;17.40;;
48526;SDS011;34317;51.660;5.824;2022-08-19T02:55:12;22.48;;;16.90;;
48526;SDS011;34317;51.660;5.824;2022-08-19T02:57:39;27.38;;;17.05;;
48526;SDS011;34317;51.660;5.824;2022-08-19T03:00:06;23.73;;;17.60;;
48526;SDS011;34317;51.660;5.824;2022-08-19T03:02:34;24.23;;;17.48;;
48526;SDS011;34317;51.660;5.824;2022-08-19T03:05:02;23.58;;;17.77;;
48526;SDS011;34317;51.660;5.824;2022-08-19T03:07:30;24.98;;;16.85;;
48526;SDS011;34317;51.660;5.824;2022-08-19T03:09:57;20.83;;;15.65;;
48526;SDS011;34317;51.660;5.824;2022-08-19T03:12:25;22.63;;;15.57;;
48526;SDS011;34317;51.660;5.824;2022-08-19T03:14:52;24.17;;;16.83;;
48526;SDS011;34317;51.660;5.824;2022-08-19T03:17:19;21.88;;;15.82;;
48526;SDS011;34317;51.660;5.824;2022-08-19T03:19:46;22.98;;;16.23;;
48526;SDS011;34317;51.660;5.824;2022-08-19T03:22:14;24.20;;;17.80;;
48526;SDS011;34317;51.660;5.824;2022-08-19T03:24:41;26.95;;;19.35;;
48526;SDS011;34317;51.660;5.824;2022-08-19T03:27:08;26.48;;;18.65;;
48526;SDS011;34317;51.660;5.824;2022-08-19T03:29:36;27.83;;;19.83;;
48526;SDS011;34317;51.660;5.824;2022-08-19T03:32:10;26.87;;;20.57;;
48526;SDS011;34317;51.660;5.824;2022-08-19T03:34:57;27.00;;;19.45;;
48526;SDS011;34317;51.660;5.824;2022-08-19T03:37:24;30.33;;;21.73;;
48526;SDS011;34317;51.660;5.824;2022-08-19T03:39:52;28.55;;;20.38;;
48526;SDS011;34317;51.660;5.824;2022-08-19T03:42:19;28.83;;;19.98;;
48526;SDS011;34317;51.660;5.824;2022-08-19T03:45:06;29.65;;;20.83;;
48526;SDS011;34317;51.660;5.824;2022-08-19T03:47:34;27.80;;;20.50;;
48526;SDS011;34317;51.660;5.824;2022-08-19T03:50:01;27.90;;;20.17;;
48526;SDS011;34317;51.660;5.824;2022-08-19T03:52:28;28.10;;;19.50;;
48526;SDS011;34317;51.660;5.824;2022-08-19T03:54:56;27.88;;;20.00;;
48526;SDS011;34317;51.660;5.824;2022-08-19T03:57:23;29.30;;;20.35;;
48526;SDS011;34317;51.660;5.824;2022-08-19T03:59:58;31.17;;;19.73;;
48526;SDS011;34317;51.660;5.824;2022-08-19T04:02:40;26.83;;;19.40;;
48526;SDS011;34317;51.660;5.824;2022-08-19T04:05:24;25.73;;;19.08;;
48526;SDS011;34317;51.660;5.824;2022-08-19T04:07:54;24.90;;;18.42;;
48526;SDS011;34317;51.660;5.824;2022-08-19T04:10:25;25.13;;;19.58;;
48526;SDS011;34317;51.660;5.824;2022-08-19T04:12:53;22.75;;;17.83;;
48526;SDS011;34317;51.660;5.824;2022-08-19T04:15:20;23.60;;;17.73;;
48526;SDS011;34317;51.660;5.824;2022-08-19T04:17:47;25.63;;;18.52;;
48526;SDS011;34317;51.660;5.824;2022-08-19T04:20:14;23.80;;;18.20;;
48526;SDS011;34317;51.660;5.824;2022-08-19T04:22:41;24.40;;;18.30;;
48526;SDS011;34317;51.660;5.824;2022-08-19T04:25:09;26.83;;;18.92;;
48526;SDS011;34317;51.660;5.824;2022-08-19T04:27:36;26.33;;;18.77;;
48526;SDS011;34317;51.660;5.824;2022-08-19T04:30:03;29.05;;;19.83;;
48526;SDS011;34317;51.660;5.824;2022-08-19T04:32:31;30.67;;;20.38;;
48526;SDS011;34317;51.660;5.824;2022-08-19T04:34:58;29.00;;;19.08;;
48526;SDS011;34317;51.660;5.824;2022-08-19T04:37:42;29.85;;;19.27;;
48526;SDS011;34317;51.660;5.824;2022-08-19T04:40:09;29.38;;;19.30;;
48526;SDS011;34317;51.660;5.824;2022-08-19T04:42:56;32.67;;;20.52;;
48526;SDS011;34317;51.660;5.824;2022-08-19T04:45:23;35.80;;;21.27;;
48526;SDS011;34317;51.660;5.824;2022-08-19T04:47:53;32.35;;;20.48;;
48526;SDS011;34317;51.660;5.824;2022-08-19T04:50:44;38.85;;;22.40;;
48526;SDS011;34317;51.660;5.824;2022-08-19T04:53:11;39.45;;;21.95;;
48526;SDS011;34317;51.660;5.824;2022-08-19T04:55:39;40.55;;;22.33;;
48526;SDS011;34317;51.660;5.824;2022-08-19T04:58:07;35.85;;;20.77;;
48526;SDS011;34317;51.660;5.824;2022-08-19T05:00:37;38.55;;;22.13;;
48526;SDS011;34317;51.660;5.824;2022-08-19T05:03:05;39.70;;;21.55;;
48526;SDS011;34317;51.660;5.824;2022-08-19T05:05:33;36.88;;;21.30;;
48526;SDS011;34317;51.660;5.824;2022-08-19T05:08:15;37.95;;;22.00;;
48526;SDS011;34317;51.660;5.824;2022-08-19T05:10:57;34.88;;;21.70;;
48526;SDS011;34317;51.660;5.824;2022-08-19T05:13:24;38.45;;;21.55;;
48526;SDS011;34317;51.660;5.824;2022-08-19T05:15:54;36.25;;;21.92;;
48526;SDS011;34317;51.660;5.824;2022-08-19T05:18:23;38.30;;;22.20;;
48526;SDS011;34317;51.660;5.824;2022-08-19T05:21:10;35.03;;;22.13;;
48526;SDS011;34317;51.660;5.824;2022-08-19T05:23:58;34.85;;;21.65;;
48526;SDS011;34317;51.660;5.824;2022-08-19T05:26:25;36.90;;;21.75;;
48526;SDS011;34317;51.660;5.824;2022-08-19T05:28:53;34.35;;;21.95;;
48526;SDS011;34317;51.660;5.824;2022-08-19T05:31:21;36.03;;;21.95;;
48526;SDS011;34317;51.660;5.824;2022-08-19T05:33:48;37.03;;;22.73;;
48526;SDS011;34317;51.660;5.824;2022-08-19T05:36:16;36.30;;;22.25;;
48526;SDS011;34317;51.660;5.824;2022-08-19T05:38:45;38.13;;;23.08;;
48526;SDS011;34317;51.660;5.824;2022-08-19T05:41:14;39.65;;;23.05;;
48526;SDS011;34317;51.660;5.824;2022-08-19T05:43:42;39.15;;;22.88;;
48526;SDS011;34317;51.660;5.824;2022-08-19T05:46:15;38.08;;;22.67;;
48526;SDS011;34317;51.660;5.824;2022-08-19T05:48:53;37.97;;;23.83;;
48526;SDS011;34317;51.660;5.824;2022-08-19T05:51:23;40.10;;;24.35;;
48526;SDS011;34317;51.660;5.824;2022-08-19T05:53:55;36.58;;;23.23;;
48526;SDS011;34317;51.660;5.824;2022-08-19T05:56:22;38.00;;;23.42;;
48526;SDS011;34317;51.660;5.824;2022-08-19T05:58:49;37.63;;;24.02;;
48526;SDS011;34317;51.660;5.824;2022-08-19T06:01:17;38.13;;;23.08;;
48526;SDS011;34317;51.660;5.824;2022-08-19T06:03:45;39.22;;;24.08;;
48526;SDS011;34317;51.660;5.824;2022-08-19T06:06:13;42.13;;;24.48;;
48526;SDS011;34317;51.660;5.824;2022-08-19T06:08:42;41.13;;;25.45;;
48526;SDS011;34317;51.660;5.824;2022-08-19T06:13:45;50.88;;;28.05;;
48526;SDS011;34317;51.660;5.824;2022-08-19T06:16:25;53.08;;;28.58;;
48526;SDS011;34317;51.660;5.824;2022-08-19T06:18:54;55.10;;;30.08;;
48526;SDS011;34317;51.660;5.824;2022-08-19T06:21:24;58.63;;;30.60;;
48526;SDS011;34317;51.660;5.824;2022-08-19T06:23:54;59.38;;;29.95;;
48526;SDS011;34317;51.660;5.824;2022-08-19T06:26:23;56.38;;;30.25;;
48526;SDS011;34317;51.660;5.824;2022-08-19T06:28:51;57.30;;;31.48;;
48526;SDS011;34317;51.660;5.824;2022-08-19T06:31:19;52.15;;;30.38;;
48526;SDS011;34317;51.660;5.824;2022-08-19T06:33:49;51.45;;;30.13;;
48526;SDS011;34317;51.660;5.824;2022-08-19T06:36:20;56.45;;;30.83;;
48526;SDS011;34317;51.660;5.824;2022-08-19T06:38:58;55.00;;;31.48;;
48526;SDS011;34317;51.660;5.824;2022-08-19T06:41:26;53.50;;;29.75;;
48526;SDS011;34317;51.660;5.824;2022-08-19T06:43:54;48.85;;;29.42;;
48526;SDS011;34317;51.660;5.824;2022-08-19T06:46:22;52.17;;;29.60;;
48526;SDS011;34317;51.660;5.824;2022-08-19T06:48:49;52.67;;;30.02;;
48526;SDS011;34317;51.660;5.824;2022-08-19T06:51:20;49.05;;;29.48;;
48526;SDS011;34317;51.660;5.824;2022-08-19T06:53:49;48.50;;;28.48;;
48526;SDS011;34317;51.660;5.824;2022-08-19T06:56:20;48.65;;;27.95;;
48526;SDS011;34317;51.660;5.824;2022-08-19T06:58:49;44.88;;;28.25;;
48526;SDS011;34317;51.660;5.824;2022-08-19T07:01:19;43.53;;;26.83;;
48526;SDS011;34317;51.660;5.824;2022-08-19T07:03:46;44.35;;;28.15;;
48526;SDS011;34317;51.660;5.824;2022-08-19T07:06:15;46.58;;;28.35;;
48526;SDS011;34317;51.660;5.824;2022-08-19T07:09:04;45.97;;;27.98;;
48526;SDS011;34317;51.660;5.824;2022-08-19T07:11:33;44.65;;;27.55;;
48526;SDS011;34317;51.660;5.824;2022-08-19T07:14:00;43.53;;;26.92;;
48526;SDS011;34317;51.660;5.824;2022-08-19T07:16:28;45.80;;;27.70;;
48526;SDS011;34317;51.660;5.824;2022-08-19T07:18:57;43.92;;;27.77;;
48526;SDS011;34317;51.660;5.824;2022-08-19T07:21:26;43.22;;;26.48;;
48526;SDS011;34317;51.660;5.824;2022-08-19T07:24:03;45.58;;;25.70;;
48526;SDS011;34317;51.660;5.824;2022-08-19T07:26:40;43.05;;;26.65;;
48526;SDS011;34317;51.660;5.824;2022-08-19T07:29:09;41.55;;;25.80;;
48526;SDS011;34317;51.660;5.824;2022-08-19T07:31:39;44.20;;;25.98;;
48526;SDS011;34317;51.660;5.824;2022-08-19T07:34:10;43.08;;;26.15;;
48526;SDS011;34317;51.660;5.824;2022-08-19T07:36:39;41.10;;;25.25;;
48526;SDS011;34317;51.660;5.824;2022-08-19T07:39:10;39.83;;;24.60;;
48526;SDS011;34317;51.660;5.824;2022-08-19T07:41:40;40.63;;;24.63;;
48526;SDS011;34317;51.660;5.824;2022-08-19T07:44:08;42.30;;;24.88;;
48526;SDS011;34317;51.660;5.824;2022-08-19T07:46:36;37.38;;;23.80;;
48526;SDS011;34317;51.660;5.824;2022-08-19T07:49:07;41.67;;;24.75;;
48526;SDS011;34317;51.660;5.824;2022-08-19T07:51:35;40.90;;;25.95;;
48526;SDS011;34317;51.660;5.824;2022-08-19T07:54:03;38.00;;;24.77;;
48526;SDS011;34317;51.660;5.824;2022-08-19T07:56:30;34.22;;;23.63;;
48526;SDS011;34317;51.660;5.824;2022-08-19T07:58:57;38.85;;;24.52;;
48526;SDS011;34317;51.660;5.824;2022-08-19T08:01:25;38.05;;;23.55;;
48526;SDS011;34317;51.660;5.824;2022-08-19T08:03:55;36.83;;;24.42;;
48526;SDS011;34317;51.660;5.824;2022-08-19T08:06:42;38.72;;;24.38;;
48526;SDS011;34317;51.660;5.824;2022-08-19T08:09:30;41.30;;;25.83;;
48526;SDS011;34317;51.660;5.824;2022-08-19T08:12:06;40.45;;;25.98;;
48526;SDS011;34317;51.660;5.824;2022-08-19T08:14:58;33.97;;;23.23;;
48526;SDS011;34317;51.660;5.824;2022-08-19T08:17:34;34.72;;;22.75;;
48526;SDS011;34317;51.660;5.824;2022-08-19T08:20:17;35.42;;;23.40;;
48526;SDS011;34317;51.660;5.824;2022-08-19T08:22:45;37.40;;;25.00;;
48526;SDS011;34317;51.660;5.824;2022-08-19T08:25:33;36.30;;;23.83;;
48526;SDS011;34317;51.660;5.824;2022-08-19T08:28:02;36.38;;;24.13;;
48526;SDS011;34317;51.660;5.824;2022-08-19T08:30:31;33.17;;;22.52;;
48526;SDS011;34317;51.660;5.824;2022-08-19T08:33:00;34.33;;;20.88;;
48526;SDS011;34317;51.660;5.824;2022-08-19T08:35:28;33.08;;;21.38;;
48526;SDS011;34317;51.660;5.824;2022-08-19T08:37:55;33.42;;;22.05;;
48526;SDS011;34317;51.660;5.824;2022-08-19T08:43:21;27.73;;;19.08;;
48526;SDS011;34317;51.660;5.824;2022-08-19T08:46:00;27.02;;;19.40;;
48526;SDS011;34317;51.660;5.824;2022-08-19T08:48:41;26.98;;;18.88;;
48526;SDS011;34317;51.660;5.824;2022-08-19T08:54:02;26.30;;;17.40;;
48526;SDS011;34317;51.660;5.824;2022-08-19T08:56:37;27.60;;;18.08;;
48526;SDS011;34317;51.660;5.824;2022-08-19T08:59:07;24.17;;;17.67;;
48526;SDS011;34317;51.660;5.824;2022-08-19T09:01:41;25.15;;;17.05;;
48526;SDS011;34317;51.660;5.824;2022-08-19T09:04:09;24.25;;;17.15;;
48526;SDS011;34317;51.660;5.824;2022-08-19T09:09:38;23.55;;;15.90;;
48526;SDS011;34317;51.660;5.824;2022-08-19T09:15:13;20.20;;;15.33;;
48526;SDS011;34317;51.660;5.824;2022-08-19T09:17:42;24.27;;;16.98;;
48526;SDS011;34317;51.660;5.824;2022-08-19T09:20:18;23.08;;;16.35;;
48526;SDS011;34317;51.660;5.824;2022-08-19T09:22:46;20.95;;;16.02;;
48526;SDS011;34317;51.660;5.824;2022-08-19T09:25:17;25.13;;;17.00;;
48526;SDS011;34317;51.660;5.824;2022-08-19T09:27:55;25.55;;;16.77;;
48526;SDS011;34317;51.660;5.824;2022-08-19T09:30:30;23.90;;;17.05;;
48526;SDS011;34317;51.660;5.824;2022-08-19T09:33:00;23.70;;;17.63;;
48526;SDS011;34317;51.660;5.824;2022-08-19T09:35:28;25.52;;;19.00;;
48526;SDS011;34317;51.660;5.824;2022-08-19T09:37:57;25.17;;;18.52;;
48526;SDS011;34317;51.660;5.824;2022-08-19T09:40:26;28.73;;;19.95;;
48526;SDS011;34317;51.660;5.824;2022-08-19T09:42:57;29.80;;;21.33;;
48526;SDS011;34317;51.660;5.824;2022-08-19T09:45:27;28.17;;;21.80;;
48526;SDS011;34317;51.660;5.824;2022-08-19T09:47:54;27.77;;;22.02;;
48526;SDS011;34317;51.660;5.824;2022-08-19T09:50:24;26.77;;;21.10;;
48526;SDS011;34317;51.660;5.824;2022-08-19T09:52:51;28.67;;;21.40;;
48526;SDS011;34317;51.660;5.824;2022-08-19T09:55:23;28.95;;;21.63;;
48526;SDS011;34317;51.660;5.824;2022-08-19T09:57:59;30.73;;;21.40;;
48526;SDS011;34317;51.660;5.824;2022-08-19T10:00:27;30.02;;;23.13;;
48526;SDS011;34317;51.660;5.824;2022-08-19T10:02:54;28.80;;;21.92;;
48526;SDS011;34317;51.660;5.824;2022-08-19T10:05:22;27.73;;;22.23;;
48526;SDS011;34317;51.660;5.824;2022-08-19T10:08:08;29.40;;;21.50;;
48526;SDS011;34317;51.660;5.824;2022-08-19T10:10:42;26.88;;;20.75;;
48526;SDS011;34317;51.660;5.824;2022-08-19T10:13:13;29.13;;;22.45;;
48526;SDS011;34317;51.660;5.824;2022-08-19T10:15:42;23.90;;;18.85;;
48526;SDS011;34317;51.660;5.824;2022-08-19T10:18:14;25.58;;;18.73;;
48526;SDS011;34317;51.660;5.824;2022-08-19T10:20:45;22.05;;;18.05;;
48526;SDS011;34317;51.660;5.824;2022-08-19T10:23:19;24.33;;;17.15;;
48526;SDS011;34317;51.660;5.824;2022-08-19T10:25:47;22.15;;;16.63;;
48526;SDS011;34317;51.660;5.824;2022-08-19T10:28:16;21.27;;;16.70;;
48526;SDS011;34317;51.660;5.824;2022-08-19T10:30:45;21.10;;;17.80;;
48526;SDS011;34317;51.660;5.824;2022-08-19T10:33:13;20.55;;;15.55;;
48526;SDS011;34317;51.660;5.824;2022-08-19T10:36:03;20.77;;;15.30;;
48526;SDS011;34317;51.660;5.824;2022-08-19T10:38:31;25.15;;;16.73;;
48526;SDS011;34317;51.660;5.824;2022-08-19T10:41:07;23.45;;;17.30;;
48526;SDS011;34317;51.660;5.824;2022-08-19T10:43:36;25.60;;;18.92;;
48526;SDS011;34317;51.660;5.824;2022-08-19T10:46:06;25.60;;;17.92;;
48526;SDS011;34317;51.660;5.824;2022-08-19T10:48:42;24.83;;;18.15;;
48526;SDS011;34317;51.660;5.824;2022-08-19T10:51:11;22.85;;;18.20;;
48526;SDS011;34317;51.660;5.824;2022-08-19T10:53:57;22.02;;;16.77;;
48526;SDS011;34317;51.660;5.824;2022-08-19T10:56:26;23.20;;;16.60;;
48526;SDS011;34317;51.660;5.824;2022-08-19T10:59:12;22.10;;;16.52;;
48526;SDS011;34317;51.660;5.824;2022-08-19T11:01:41;23.00;;;16.77;;
48526;SDS011;34317;51.660;5.824;2022-08-19T11:04:10;24.20;;;17.20;;
48526;SDS011;34317;51.660;5.824;2022-08-19T11:06:40;22.75;;;15.52;;
48526;SDS011;34317;51.660;5.824;2022-08-19T11:09:09;21.67;;;15.43;;
48526;SDS011;34317;51.660;5.824;2022-08-19T11:11:38;20.08;;;14.52;;
48526;SDS011;34317;51.660;5.824;2022-08-19T11:14:10;20.02;;;15.48;;
48526;SDS011;34317;51.660;5.824;2022-08-19T11:16:41;21.88;;;15.85;;
48526;SDS011;34317;51.660;5.824;2022-08-19T11:19:09;22.60;;;16.20;;
48526;SDS011;34317;51.660;5.824;2022-08-19T11:21:39;24.77;;;16.98;;
48526;SDS011;34317;51.660;5.824;2022-08-19T11:24:09;24.27;;;16.38;;
48526;SDS011;34317;51.660;5.824;2022-08-19T11:26:42;23.15;;;17.17;;
48526;SDS011;34317;51.660;5.824;2022-08-19T11:29:11;24.02;;;17.80;;
48526;SDS011;34317;51.660;5.824;2022-08-19T11:31:40;25.20;;;17.35;;
48526;SDS011;34317;51.660;5.824;2022-08-19T11:34:10;21.00;;;17.05;;
48526;SDS011;34317;51.660;5.824;2022-08-19T11:36:41;24.08;;;16.98;;
48526;SDS011;34317;51.660;5.824;2022-08-19T11:39:11;26.17;;;18.88;;
48526;SDS011;34317;51.660;5.824;2022-08-19T11:41:40;24.65;;;18.50;;
48526;SDS011;34317;51.660;5.824;2022-08-19T11:44:07;24.15;;;17.55;;
48526;SDS011;34317;51.660;5.824;2022-08-19T11:46:35;23.42;;;17.70;;
48526;SDS011;34317;51.660;5.824;2022-08-19T11:49:04;27.52;;;18.00;;
48526;SDS011;34317;51.660;5.824;2022-08-19T11:51:39;25.58;;;17.30;;
48526;SDS011;34317;51.660;5.824;2022-08-19T11:54:09;22.30;;;17.35;;
48526;SDS011;34317;51.660;5.824;2022-08-19T11:56:37;21.80;;;16.85;;
48526;SDS011;34317;51.660;5.824;2022-08-19T11:59:05;26.00;;;17.33;;
48526;SDS011;34317;51.660;5.824;2022-08-19T12:01:32;18.77;;;13.30;;
48526;SDS011;34317;51.660;5.824;2022-08-19T12:03:59;20.08;;;14.70;;
48526;SDS011;34317;51.660;5.824;2022-08-19T12:06:28;20.33;;;13.90;;
48526;SDS011;34317;51.660;5.824;2022-08-19T12:08:59;22.10;;;15.13;;
48526;SDS011;34317;51.660;5.824;2022-08-19T12:11:28;19.42;;;14.57;;
48526;SDS011;34317;51.660;5.824;2022-08-19T12:14:00;20.38;;;15.52;;
48526;SDS011;34317;51.660;5.824;2022-08-19T12:16:29;20.67;;;14.48;;
48526;SDS011;34317;51.660;5.824;2022-08-19T12:18:58;22.23;;;15.70;;
48526;SDS011;34317;51.660;5.824;2022-08-19T12:21:31;21.20;;;16.20;;
48526;SDS011;34317;51.660;5.824;2022-08-19T12:24:01;25.27;;;16.50;;
48526;SDS011;34317;51.660;5.824;2022-08-19T12:26:30;21.38;;;16.15;;
48526;SDS011;34317;51.660;5.824;2022-08-19T12:28:58;23.00;;;16.02;;
48526;SDS011;34317;51.660;5.824;2022-08-19T12:31:29;22.80;;;15.80;;
48526;SDS011;34317;51.660;5.824;2022-08-19T12:33:56;22.27;;;15.05;;
48526;SDS011;34317;51.660;5.824;2022-08-19T12:36:23;19.20;;;14.88;;
48526;SDS011;34317;51.660;5.824;2022-08-19T12:38:51;21.17;;;15.63;;
48526;SDS011;34317;51.660;5.824;2022-08-19T12:41:19;18.38;;;14.40;;
48526;SDS011;34317;51.660;5.824;2022-08-19T12:43:49;20.23;;;15.38;;
48526;SDS011;34317;51.660;5.824;2022-08-19T12:46:17;18.73;;;14.50;;
48526;SDS011;34317;51.660;5.824;2022-08-19T12:48:49;18.80;;;12.18;;
48526;SDS011;34317;51.660;5.824;2022-08-19T12:51:21;16.40;;;13.23;;
48526;SDS011;34317;51.660;5.824;2022-08-19T12:53:49;19.33;;;14.60;;
48526;SDS011;34317;51.660;5.824;2022-08-19T12:56:16;19.42;;;14.52;;
48526;SDS011;34317;51.660;5.824;2022-08-19T12:58:49;21.35;;;15.00;;
48526;SDS011;34317;51.660;5.824;2022-08-19T13:01:18;20.50;;;16.45;;
48526;SDS011;34317;51.660;5.824;2022-08-19T13:03:49;20.73;;;16.38;;
48526;SDS011;34317;51.660;5.824;2022-08-19T13:06:19;20.30;;;15.63;;
48526;SDS011;34317;51.660;5.824;2022-08-19T13:08:46;18.27;;;14.82;;
48526;SDS011;34317;51.660;5.824;2022-08-19T13:11:15;19.20;;;13.57;;
48526;SDS011;34317;51.660;5.824;2022-08-19T13:13:48;17.85;;;13.55;;
48526;SDS011;34317;51.660;5.824;2022-08-19T13:16:17;19.02;;;14.50;;
48526;SDS011;34317;51.660;5.824;2022-08-19T13:18:46;17.30;;;14.35;;
48526;SDS011;34317;51.660;5.824;2022-08-19T13:21:18;20.02;;;14.45;;
48526;SDS011;34317;51.660;5.824;2022-08-19T13:23:49;16.73;;;13.50;;
48526;SDS011;34317;51.660;5.824;2022-08-19T13:26:17;21.75;;;16.33;;
48526;SDS011;34317;51.660;5.824;2022-08-19T13:28:45;18.90;;;14.40;;
48526;SDS011;34317;51.660;5.824;2022-08-19T13:31:31;19.15;;;13.68;;
48526;SDS011;34317;51.660;5.824;2022-08-19T13:34:25;23.45;;;15.18;;
48526;SDS011;34317;51.660;5.824;2022-08-19T13:36:57;16.63;;;13.05;;
48526;SDS011;34317;51.660;5.824;2022-08-19T13:39:24;17.20;;;12.57;;
48526;SDS011;34317;51.660;5.824;2022-08-19T13:41:52;16.92;;;13.02;;
48526;SDS011;34317;51.660;5.824;2022-08-19T13:44:19;19.45;;;13.02;;
48526;SDS011;34317;51.660;5.824;2022-08-19T13:46:47;19.08;;;13.75;;
48526;SDS011;34317;51.660;5.824;2022-08-19T13:49:20;24.45;;;14.90;;
48526;SDS011;34317;51.660;5.824;2022-08-19T13:51:47;19.88;;;14.65;;
48526;SDS011;34317;51.660;5.824;2022-08-19T13:54:14;19.58;;;14.30;;
48526;SDS011;34317;51.660;5.824;2022-08-19T13:56:42;21.40;;;15.35;;
48526;SDS011;34317;51.660;5.824;2022-08-19T13:59:11;18.80;;;13.60;;
48526;SDS011;34317;51.660;5.824;2022-08-19T14:01:39;17.38;;;13.63;;
48526;SDS011;34317;51.660;5.824;2022-08-19T14:04:06;20.38;;;14.82;;
48526;SDS011;34317;51.660;5.824;2022-08-19T14:06:34;19.92;;;14.55;;
48526;SDS011;34317;51.660;5.824;2022-08-19T14:09:01;20.48;;;15.77;;
48526;SDS011;34317;51.660;5.824;2022-08-19T14:11:29;22.55;;;16.10;;
48526;SDS011;34317;51.660;5.824;2022-08-19T14:13:56;23.15;;;16.35;;
48526;SDS011;34317;51.660;5.824;2022-08-19T14:16:23;21.67;;;16.17;;
48526;SDS011;34317;51.660;5.824;2022-08-19T14:18:51;22.55;;;16.75;;
48526;SDS011;34317;51.660;5.824;2022-08-19T14:21:20;26.58;;;19.10;;
48526;SDS011;34317;51.660;5.824;2022-08-19T14:23:50;24.55;;;17.88;;
48526;SDS011;34317;51.660;5.824;2022-08-19T14:26:18;25.98;;;18.35;;
48526;SDS011;34317;51.660;5.824;2022-08-19T14:28:46;23.48;;;18.45;;
48526;SDS011;34317;51.660;5.824;2022-08-19T14:31:14;24.67;;;17.77;;
48526;SDS011;34317;51.660;5.824;2022-08-19T14:33:48;25.20;;;18.15;;
48526;SDS011;34317;51.660;5.824;2022-08-19T14:36:17;23.98;;;17.48;;
48526;SDS011;34317;51.660;5.824;2022-08-19T14:38:46;27.17;;;18.33;;
48526;SDS011;34317;51.660;5.824;2022-08-19T14:41:16;24.25;;;16.63;;
48526;SDS011;34317;51.660;5.824;2022-08-19T14:43:46;21.85;;;15.40;;
48526;SDS011;34317;51.660;5.824;2022-08-19T14:46:16;18.65;;;14.07;;
48526;SDS011;34317;51.660;5.824;2022-08-19T14:48:47;20.30;;;14.75;;
48526;SDS011;34317;51.660;5.824;2022-08-19T14:51:18;22.75;;;14.98;;
48526;SDS011;34317;51.660;5.824;2022-08-19T14:53:46;20.73;;;13.70;;
48526;SDS011;34317;51.660;5.824;2022-08-19T14:56:16;20.83;;;14.63;;
48526;SDS011;34317;51.660;5.824;2022-08-19T14:58:46;16.60;;;12.35;;
48526;SDS011;34317;51.660;5.824;2022-08-19T15:01:13;16.67;;;10.73;;